Data for 05/08/2017

Time Sea-Level Adjusted Pressure Absolute Pressure Temperature Relative Humidity Dew Point   
(mb) (inHg) (mb) (inHg) (C) (F) (%) (C) (F)
00:05 1020 30.12 850 25.1 5.5 41.9 86 3.3 37.9
00:10 1020 30.12 850 25.1 5.4 41.8 84 2.9 37.3
00:15 1020 30.12 850 25.1 5.5 41.8 85 3.1 37.7
00:20 1021 30.15 850 25.1 5.5 41.9 82 2.7 36.9
00:25 1021 30.15 850 25.1 5.5 41.9 83 2.8 37.1
00:30 1021 30.15 850 25.1 5.4 41.8 84 2.9 37.2
00:35 1021 30.15 850 25.1 5.5 41.9 85 3.1 37.6
00:40 1021 30.15 850 25.1 5.5 42 83 2.9 37.2
00:45 1021 30.15 850 25.1 5.5 42 82 2.7 36.9
00:50 1021 30.15 850 25.1 5.6 42 81 2.5 36.5
00:55 1021 30.15 850 25.1 5.5 42 81 2.6 36.6
01:00 1021 30.15 850 25.1 5.3 41.6 83 2.6 36.7
01:05 1021 30.15 850 25.1 5.4 41.6 82 2.5 36.5
01:10 1021 30.15 850 25.1 5.3 41.6 81 2.4 36.3
01:15 1021 30.15 850 25.1 5.3 41.6 81 2.3 36.1
01:20 1021 30.15 850 25.1 5.3 41.5 81 2.4 36.3
01:25 1021 30.15 850 25.1 5.3 41.5 82 2.4 36.3
01:30 1021 30.15 850 25.1 5.2 41.4 82 2.4 36.3
01:35 1021 30.15 850 25.1 5.2 41.4 81 2.3 36.2
01:40 1021 30.15 850 25.1 5.2 41.4 82 2.3 36.2
01:45 1021 30.15 850 25.1 5.3 41.5 81 2.3 36.1
01:50 1021 30.15 850 25.1 5.2 41.4 81 2.2 35.9
01:55 1021 30.15 850 25.1 5.3 41.5 80 2.1 35.7
02:00 1021 30.15 850 25.1 5.3 41.6 79 2 35.7
02:05 1021 30.15 850 25.1 5.3 41.5 80 2.2 35.9
02:10 1021 30.15 850 25.1 5.2 41.4 79 1.9 35.5
02:15 1021 30.15 850 25.1 5.2 41.4 80 2 35.6
02:20 1021 30.15 850 25.1 5.3 41.5 80 2.1 35.7
02:25 1021 30.15 850 25.1 5.3 41.6 79 2 35.6
02:30 1021 30.15 850 25.1 5.3 41.5 79 2 35.6
02:35 1021 30.15 850 25.1 5.3 41.5 79 2 35.6
02:40 1021 30.15 850 25.1 5.3 41.5 79 2 35.6
02:45 1021 30.15 850 25.1 5.3 41.6 80 2.1 35.8
02:50 1021 30.15 850 25.1 5.4 41.7 79 2 35.6
02:55 1021 30.15 850 25.1 5.4 41.6 79 2 35.6
03:00 1021 30.15 850 25.1 5.4 41.7 78 1.9 35.4
03:05 1021 30.15 850 25.1 5.3 41.6 78 1.9 35.4
03:10 1021 30.15 850 25.1 5.3 41.6 78 1.9 35.4
03:15 1021 30.15 850 25.1 5.3 41.5 79 1.9 35.4
03:20 1021 30.15 850 25.1 5.3 41.5 78 1.8 35.2
03:25 1021 30.15 850 25.1 5.3 41.5 79 1.9 35.5
03:30 1021 30.15 850 25.1 5.3 41.5 78 1.7 35.1
03:35 1021 30.15 850 25.1 5.4 41.7 78 1.9 35.4
03:40 1021 30.15 850 25.1 5.4 41.7 79 2.1 35.8
03:45 1021 30.15 850 25.1 5.3 41.6 80 2.1 35.9
03:50 1021 30.15 850 25.1 5.3 41.6 78 1.9 35.4
03:55 1021 30.15 850 25.1 5.4 41.7 76 1.5 34.6
04:00 1021 30.15 850 25.1 5.4 41.7 73 1 33.8
04:05 1021 30.15 850 25.1 5.4 41.6 73 0.8 33.5
04:10 1021 30.15 851 25.13 5.4 41.6 72 0.8 33.4
04:15 1021 30.15 851 25.13 5.3 41.6 72 0.7 33.2
04:20 1021 30.15 851 25.13 5.3 41.5 71 0.5 32.9
04:25 1022 30.18 851 25.13 5.2 41.4 69 0.1 32.2
04:30 1022 30.18 851 25.13 5.2 41.4 71 0.3 32.6
04:35 1022 30.18 851 25.13 5.1 41.2 70 0.1 32.2
04:40 1022 30.18 851 25.13 5 41.1 71 0.2 32.4
04:45 1022 30.18 851 25.13 5 40.9 69 -0.2 31.6
04:50 1022 30.18 851 25.13 4.9 40.7 71 -0 32
04:55 1022 30.18 851 25.13 4.9 40.8 70 -0.1 31.9
05:00 1022 30.18 851 25.13 4.8 40.6 70 -0.2 31.6
05:05 1022 30.18 851 25.13 4.8 40.6 69 -0.4 31.3
05:10 1022 30.18 851 25.13 4.8 40.6 70 -0.2 31.7
05:15 1022 30.18 851 25.13 4.8 40.6 69 -0.4 31.2
05:20 1022 30.18 851 25.13 4.8 40.7 71 0 32.1
05:25 1022 30.18 851 25.13 4.8 40.6 68 -0.5 31.1
05:30 1022 30.18 851 25.13 4.8 40.6 70 -0.3 31.5
05:35 1022 30.18 851 25.13 4.6 40.4 70 -0.3 31.4
05:40 1022 30.18 851 25.13 4.6 40.3 69 -0.6 30.9
05:45 1022 30.18 851 25.13 4.6 40.2 69 -0.6 30.8
05:50 1022 30.18 851 25.13 4.4 39.9 69 -0.7 30.7
05:55 1022 30.18 851 25.13 4.3 39.8 69 -0.8 30.6
06:00 1022 30.18 851 25.13 4.4 39.9 71 -0.5 31.1
06:05 1022 30.18 851 25.13 4.4 40 70 -0.6 31
06:10 1022 30.18 851 25.13 4.4 40 71 -0.4 31.2
06:15 1022 30.18 851 25.13 4.5 40.1 71 -0.3 31.4
06:20 1022 30.18 851 25.13 4.4 40 70 -0.5 31.1
06:25 1022 30.18 851 25.13 4.5 40 71 -0.4 31.3
06:30 1022 30.18 852 25.16 4.5 40.2 71 -0.2 31.6
06:35 1022 30.18 852 25.16 4.6 40.4 71 -0.1 31.8
06:40 1022 30.18 851 25.13 4.8 40.6 72 0.1 32.2
06:45 1022 30.18 852 25.16 4.8 40.7 72 0.2 32.4
06:50 1022 30.18 852 25.16 4.9 40.8 72 0.2 32.4
06:55 1022 30.18 852 25.16 4.8 40.7 73 0.4 32.8
07:00 1022 30.18 852 25.16 4.8 40.7 74 0.6 33.1
07:05 1022 30.18 852 25.16 4.9 40.7 74 0.6 33
07:10 1022 30.18 852 25.16 4.8 40.7 75 0.7 33.3
07:15 1022 30.18 852 25.16 5.3 41.5 72 0.6 33
07:20 1023 30.21 852 25.16 5.4 41.8 73 0.9 33.6
07:25 1023 30.21 852 25.16 5.6 42.1 70 0.6 33.1
07:30 1023 30.21 852 25.16 6.2 43.2 67 0.6 33
07:35 1023 30.21 852 25.16 6.4 43.4 67 0.6 33.2
07:40 1023 30.21 852 25.16 6.2 43.2 67 0.6 33
07:45 1023 30.21 852 25.16 5.7 42.3 70 0.6 33.2
07:50 1023 30.21 852 25.16 5.6 42.1 70 0.6 33.1
07:55 1023 30.21 852 25.16 5.8 42.5 67 0.2 32.3
08:00 1023 30.21 852 25.16 6 42.8 62 -0.7 30.7
08:05 1023 30.21 852 25.16 6 42.9 58 -1.5 29.3
08:10 1023 30.21 852 25.16 6.1 43.1 59 -1.4 29.6
08:15 1023 30.21 852 25.16 6.3 43.3 59 -1.1 30
08:20 1023 30.21 852 25.16 6.3 43.4 58 -1.2 29.9
08:25 1023 30.21 852 25.16 6.5 43.8 57 -1.3 29.6
08:30 1023 30.21 852 25.16 6.5 43.7 55 -1.9 28.6
08:35 1023 30.21 852 25.16 6.6 43.9 53 -2.3 27.9
08:40 1023 30.21 852 25.16 6.9 44.5 53 -2.1 28.2
08:45 1023 30.21 852 25.16 7.5 45.5 51 -1.9 28.6
08:50 1023 30.21 852 25.16 7.8 46 50 -2 28.3
08:55 1023 30.21 852 25.16 7.8 46 47 -2.9 26.8
09:00 1023 30.21 852 25.16 7.7 45.9 48 -2.6 27.4
09:05 1023 30.21 852 25.16 7.8 46.1 45 -3.3 26
09:10 1023 30.21 852 25.16 7.9 46.2 46 -3 26.5
09:15 1023 30.21 852 25.16 8.2 46.7 46 -2.8 27
09:20 1023 30.21 852 25.16 8 46.5 48 -2.2 28
09:25 1023 30.21 852 25.16 8.1 46.5 47 -2.6 27.4
09:30 1023 30.21 852 25.16 8.7 47.6 44 -2.8 26.9
09:35 1023 30.21 852 25.16 9.2 48.5 43 -2.6 27.3
09:40 1023 30.21 852 25.16 9 48.2 43 -2.9 26.8
09:45 1023 30.21 852 25.16 9.1 48.3 42 -3.1 26.4
09:50 1023 30.21 852 25.16 8.9 48 42 -3.2 26.2
09:55 1023 30.21 852 25.16 9.1 48.4 41 -3.2 26.2
10:00 1023 30.21 852 25.16 9.1 48.4 43 -2.9 26.9
10:05 1023 30.21 852 25.16 9.2 48.5 41 -3.5 25.6
10:10 1023 30.21 852 25.16 9.4 49 42 -2.9 26.8
10:15 1023 30.21 852 25.16 9.2 48.5 42 -3.1 26.3
10:20 1023 30.21 852 25.16 9.5 49.2 41 -3.1 26.5
10:25 1023 30.21 852 25.16 10 50 41 -2.7 27.2
10:30 1023 30.21 852 25.16 9.1 48.4 44 -2.6 27.4
10:35 1023 30.21 852 25.16 9.1 48.3 44 -2.6 27.4
10:40 1023 30.21 852 25.16 9 48.1 43 -3 26.5
10:45 1023 30.21 852 25.16 9.3 48.7 40 -3.7 25.3
10:50 1023 30.21 852 25.16 10.7 51.2 40 -2.5 27.6
10:55 1023 30.21 852 25.16 10.6 51 39 -2.9 26.8
11:00 1023 30.21 852 25.16 10.2 50.3 41 -2.6 27.3
11:05 1023 30.21 852 25.16 10.1 50.2 41 -2.6 27.3
11:10 1023 30.21 852 25.16 10.7 51.3 40 -2.4 27.7
11:15 1023 30.21 852 25.16 10.3 50.6 41 -2.4 27.6
11:20 1023 30.21 852 25.16 10.4 50.7 38 -3.3 26.1
11:25 1023 30.21 852 25.16 10.4 50.8 37 -3.6 25.5
11:30 1023 30.21 852 25.16 10.9 51.6 39 -2.5 27.6
11:35 1023 30.21 852 25.16 11.5 52.8 35 -3.5 25.7
11:40 1023 30.21 852 25.16 12 53.5 35 -2.8 26.9
11:45 1022 30.18 852 25.16 11.8 53.3 36 -2.9 26.8
11:50 1022 30.18 852 25.16 11.2 52.1 38 -2.6 27.4
11:55 1022 30.18 852 25.16 11.3 52.3 34 -4 24.8
12:00 1022 30.18 852 25.16 11.3 52.3 35 -3.4 25.8
12:05 1022 30.18 851 25.13 11.3 52.4 39 -2.2 28
12:10 1022 30.18 851 25.13 12.5 54.5 34 -2.8 26.9
12:15 1022 30.18 851 25.13 12.1 53.9 38 -1.6 29.1
12:20 1022 30.18 851 25.13 11.2 52.2 40 -1.7 28.9
12:25 1022 30.18 851 25.13 11.3 52.4 38 -2.4 27.7
12:30 1022 30.18 851 25.13 13 55.4 34 -2.5 27.5
12:35 1022 30.18 851 25.13 12.7 54.8 36 -2.1 28.2
12:40 1022 30.18 851 25.13 12.8 55 35 -2.2 28
12:45 1022 30.18 851 25.13 13.1 55.5 34 -2.5 27.5
12:50 1022 30.18 851 25.13 12.9 55.3 34 -2.4 27.7
12:55 1021 30.15 851 25.13 13.4 56 34 -1.9 28.5
13:00 1021 30.15 851 25.13 13.3 56 35 -1.7 28.9
13:05 1021 30.15 851 25.13 13.1 55.6 34 -2.3 27.8
13:10 1021 30.15 850 25.1 12 53.5 39 -1.6 29.1
13:15 1021 30.15 850 25.1 12.9 55.1 34 -2.5 27.6
13:20 1021 30.15 850 25.1 13.7 56.6 33 -2.3 27.8
13:25 1021 30.15 850 25.1 13.6 56.4 35 -1.6 29.2
13:30 1021 30.15 850 25.1 13.2 55.8 35 -1.6 29.1
13:35 1021 30.15 850 25.1 13.7 56.7 35 -1.4 29.4
13:40 1021 30.15 850 25.1 13.6 56.4 37 -0.7 30.7
13:45 1021 30.15 850 25.1 13.5 56.2 34 -2 28.3
13:50 1021 30.15 850 25.1 13.8 56.9 34 -1.6 29.1
13:55 1021 30.15 850 25.1 14 57.2 33 -1.8 28.8
14:00 1021 30.15 850 25.1 13.8 56.8 36 -1 30.1
14:05 1021 30.15 850 25.1 13.5 56.3 36 -1.3 29.6
14:10 1021 30.15 850 25.1 13.1 55.5 38 -1 30.3
14:15 1020 30.12 850 25.1 12.5 54.6 38 -1.5 29.3
14:20 1020 30.12 850 25.1 13.9 57 36 -0.8 30.5
14:25 1020 30.12 850 25.1 14.6 58.3 33 -1.3 29.7
14:30 1020 30.12 850 25.1 14.3 57.7 35 -0.9 30.4
14:35 1020 30.12 850 25.1 14.3 57.7 34 -1.2 29.8
14:40 1020 30.12 850 25.1 14.2 57.5 35 -1.1 30
14:45 1020 30.12 850 25.1 14 57.1 35 -1.2 29.9
14:50 1020 30.12 850 25.1 14.1 57.3 34 -1.4 29.5
14:55 1020 30.12 849 25.07 14.3 57.7 34 -1.2 29.9
15:00 1020 30.12 849 25.07 14 57.3 34 -1.7 28.9
15:05 1020 30.12 849 25.07 14 57.1 35 -1.3 29.6
15:10 1020 30.12 849 25.07 14.2 57.6 31 -2.5 27.5
15:15 1020 30.12 849 25.07 14 57.2 33 -1.9 28.6
15:20 1020 30.12 849 25.07 14.2 57.5 33 -1.8 28.8
15:25 1020 30.12 849 25.07 15.1 59.2 32 -1.2 29.8
15:30 1020 30.12 849 25.07 15.4 59.7 31 -1.4 29.4
15:35 1020 30.12 849 25.07 15.1 59.1 32 -1.4 29.5
15:40 1020 30.12 849 25.07 15.4 59.7 30 -1.8 28.7
15:45 1020 30.12 849 25.07 15.2 59.4 35 0.1 32.1
15:50 1020 30.12 849 25.07 14.9 58.8 32 -1.4 29.5
15:55 1020 30.12 849 25.07 15.5 59.9 33 -0.8 30.6
16:00 1020 30.12 849 25.07 15 58.9 33 -0.9 30.3
16:05 1020 30.12 849 25.07 14.4 58 35 -0.7 30.7
16:10 1020 30.12 849 25.07 14.2 57.6 35 -1 30.2
16:15 1020 30.12 849 25.07 14.2 57.6 34 -1.4 29.4
16:20 1019 30.09 849 25.07 14.8 58.6 34 -1 30.2
16:25 1019 30.09 849 25.07 14.8 58.6 34 -1 30.2
16:30 1019 30.09 849 25.07 15.2 59.4 34 -0.5 31
16:35 1019 30.09 849 25.07 14.9 58.8 35 -0.3 31.4
16:40 1019 30.09 848 25.04 14.7 58.5 33 -1.2 29.8
16:45 1019 30.09 848 25.04 15.2 59.4 34 -0.6 30.9
16:50 1019 30.09 848 25.04 14.5 58.1 37 0.1 32.1
16:55 1019 30.09 848 25.04 14.6 58.2 35 -0.5 31
17:00 1019 30.09 848 25.04 14.8 58.6 34 -0.8 30.5
17:05 1019 30.09 848 25.04 15.1 59.2 32 -1.2 29.8
17:10 1019 30.09 848 25.04 15.6 60.1 32 -0.7 30.7
17:15 1019 30.09 848 25.04 15.7 60.2 32 -0.9 30.3
17:20 1019 30.09 848 25.04 15.5 59.9 32 -1.1 30.1
17:25 1019 30.09 848 25.04 15.2 59.3 32 -1.1 30
17:30 1019 30.09 848 25.04 15.2 59.4 32 -1.1 30
17:35 1019 30.09 848 25.04 15.5 59.8 32 -1.3 29.7
17:40 1019 30.09 848 25.04 15.4 59.8 32 -1.2 29.8
17:45 1019 30.09 848 25.04 15.5 59.9 31 -1.5 29.4
17:50 1019 30.09 848 25.04 15 59 31 -1.7 28.9
17:55 1019 30.09 848 25.04 15.3 59.5 31 -1.5 29.4
18:00 1019 30.09 848 25.04 15.5 60 31 -1.6 29.2
18:05 1019 30.09 848 25.04 15.8 60.4 31 -1.4 29.5
18:10 1019 30.09 848 25.04 15.9 60.7 30 -1.4 29.4
18:15 1018 30.06 848 25.04 15.9 60.5 30 -1.5 29.3
18:20 1018 30.06 848 25.04 15.9 60.6 31 -1 30.2
18:25 1018 30.06 848 25.04 15.8 60.4 31 -1.2 29.8
18:30 1018 30.06 848 25.04 15.6 60 31 -1.2 29.9
18:35 1018 30.06 848 25.04 15.5 59.9 32 -1 30.1
18:40 1018 30.06 847 25.01 15.4 59.8 33 -0.9 30.4
18:45 1018 30.06 847 25.01 15.3 59.5 32 -1.1 30.1
18:50 1018 30.06 847 25.01 15.2 59.4 32 -1.2 29.9
18:55 1018 30.06 847 25.01 14.8 58.6 33 -1.1 30
19:00 1018 30.06 847 25.01 14.4 57.9 34 -1 30.2
19:05 1018 30.06 847 25.01 14.4 57.9 34 -1.2 29.9
19:10 1018 30.06 847 25.01 14.4 57.8 36 -0.6 30.9
19:15 1018 30.06 847 25.01 14.3 57.8 34 -1.4 29.6
19:20 1018 30.06 847 25.01 14 57.2 35 -1 30.1
19:25 1018 30.06 847 25.01 13.8 56.8 35 -1.3 29.7
19:30 1018 30.06 847 25.01 14 57.3 35 -1.1 30.1
19:35 1018 30.06 847 25.01 14 57.3 35 -1.1 30.1
19:40 1018 30.06 847 25.01 14.1 57.4 35 -0.9 30.3
19:45 1018 30.06 847 25.01 14.1 57.3 35 -1.2 29.9
19:50 1018 30.06 847 25.01 13.9 57 35 -1.1 30
19:55 1018 30.06 847 25.01 13.8 56.9 35 -1.1 30
20:00 1018 30.06 848 25.04 13.7 56.7 36 -0.9 30.3
20:05 1018 30.06 848 25.04 13.7 56.7 36 -0.9 30.5
20:10 1018 30.06 847 25.01 13.6 56.4 37 -0.9 30.3
20:15 1018 30.06 848 25.04 13.3 55.9 38 -0.7 30.8
20:20 1018 30.06 848 25.04 13 55.4 40 -0.3 31.5
20:25 1018 30.06 848 25.04 12.7 54.9 39 -0.7 30.7
20:30 1018 30.06 848 25.04 12.6 54.7 40 -0.7 30.8
20:35 1018 30.06 848 25.04 12.3 54.2 41 -0.5 31.1
20:40 1018 30.06 848 25.04 12.2 53.9 42 -0.4 31.2
20:45 1019 30.09 848 25.04 12 53.6 43 -0.1 31.7
20:50 1019 30.09 848 25.04 11.9 53.4 44 0.1 32.2
20:55 1019 30.09 848 25.04 11.8 53.2 45 0.3 32.6
21:00 1019 30.09 848 25.04 11.6 52.9 46 0.5 32.9
21:05 1019 30.09 848 25.04 11.5 52.6 46 0.4 32.7
21:10 1019 30.09 848 25.04 11.3 52.4 47 0.6 33
21:15 1019 30.09 848 25.04 11.2 52.1 49 0.7 33.3
21:20 1019 30.09 848 25.04 10.9 51.6 49 0.7 33.3
21:25 1019 30.09 848 25.04 10.8 51.4 49 0.5 32.9
21:30 1019 30.09 848 25.04 10.7 51.3 49 0.5 33
21:35 1019 30.09 848 25.04 10.6 51.1 49 0.4 32.8
21:40 1019 30.09 848 25.04 10.6 51 49 0.2 32.4
21:45 1019 30.09 848 25.04 10.5 51 48 0.1 32.2
21:50 1019 30.09 848 25.04 10.5 50.8 48 -0.1 31.8
21:55 1019 30.09 848 25.04 10.5 50.9 47 -0.2 31.7
22:00 1019 30.09 848 25.04 10.5 50.9 47 -0.2 31.6
22:05 1019 30.09 848 25.04 10.5 50.9 49 0.1 32.2
22:10 1019 30.09 848 25.04 10.3 50.6 49 0.2 32.3
22:15 1019 30.09 848 25.04 10.1 50.2 51 0.5 32.8
22:20 1019 30.09 848 25.04 9.8 49.7 52 0.6 33.1
22:25 1019 30.09 848 25.04 9.8 49.6 52 0.4 32.8
22:30 1019 30.09 848 25.04 9.8 49.7 53 0.6 33.1
22:35 1019 30.09 848 25.04 9.8 49.6 52 0.5 32.9
22:40 1019 30.09 848 25.04 9.8 49.6 52 0.4 32.7
22:45 1019 30.09 848 25.04 9.8 49.6 52 0.5 32.9
22:50 1019 30.09 848 25.04 9.8 49.6 52 0.5 32.9
22:55 1019 30.09 848 25.04 9.7 49.4 53 0.5 33
23:00 1019 30.09 848 25.04 9.6 49.3 53 0.6 33
23:05 1019 30.09 848 25.04 9.6 49.2 53 0.5 32.9
23:10 1019 30.09 848 25.04 9.6 49.2 54 0.7 33.2
23:15 1019 30.09 848 25.04 9.5 49 54 0.6 33.2
23:20 1019 30.09 848 25.04 9.4 49 54 0.7 33.2
23:25 1019 30.09 848 25.04 9.4 48.8 54 0.7 33.2
23:30 1019 30.09 848 25.04 9.3 48.8 55 0.7 33.3
23:35 1019 30.09 848 25.04 9.2 48.6 55 0.8 33.4
23:40 1019 30.09 848 25.04 9.2 48.6 55 0.7 33.3
23:45 1019 30.09 848 25.04 9.1 48.4 56 0.8 33.4
23:50 1019 30.09 848 25.04 9.1 48.3 56 0.8 33.5
23:55 1019 30.09 848 25.04 9 48.1 56 0.8 33.4
24:00 1019 30.09 848 25.04 8.9 48.1 57 0.8 33.4